Time;durP1;ratioP1;P1;durP2;ratioP2;P2;SDS_P1;SDS_P2;PMS_P1;PMS_P2;Temp;Humidity;BMP_temperature;BMP_pressure;BME280_temperature;BME280_humidity;BME280_pressure;Samples;Min_cycle;Max_cycle;Signal;HPM_P1;HPM_P2
2023/01/03 00:01:23;;;;;;;16.60;10.52;;;;;;;7.33;78.08;99087.94;4969025;28;20030;-68
2023/01/03 00:03:48;;;;;;;16.30;10.30;;;;;;;7.32;78.22;99091.75;4969293;28;20050;-68
2023/01/03 00:06:19;;;;;;;18.00;10.32;;;;;;;7.32;78.52;99089.03;4969388;28;20050;-68
2023/01/03 00:08:45;;;;;;;18.90;10.57;;;;;;;7.30;78.35;99097.47;4968646;28;20031;-69
2023/01/03 00:11:19;;;;;;;18.92;10.77;;;;;;;7.30;78.59;99104.81;4969003;28;20031;-67
2023/01/03 00:13:44;;;;;;;19.10;10.75;;;;;;;7.30;78.37;99107.56;4980730;28;20468;-68
2023/01/03 00:16:15;;;;;;;18.83;11.38;;;;;;;7.31;78.44;99106.47;4970157;28;20026;-68
2023/01/03 00:18:40;;;;;;;19.15;10.50;;;;;;;7.31;78.26;99122.84;4966399;28;20475;-68
2023/01/03 00:21:06;;;;;;;19.75;12.05;;;;;;;7.32;77.79;99118.22;4968931;28;20038;-68
2023/01/03 00:23:31;;;;;;;17.20;10.88;;;;;;;7.30;78.24;99116.59;4968863;28;20019;-68
2023/01/03 00:25:56;;;;;;;18.77;11.63;;;;;;;7.30;77.69;99118.47;4968987;28;20635;-69
2023/01/03 00:28:22;;;;;;;20.30;11.88;;;;;;;7.30;78.09;99121.19;4969595;28;20019;-68
2023/01/03 00:30:47;;;;;;;18.92;11.05;;;;;;;7.31;78.39;99120.13;4969203;28;20054;-66
2023/01/03 00:33:12;;;;;;;18.30;11.43;;;;;;;7.30;78.01;99122.03;4964904;28;20057;-69
2023/01/03 00:35:38;;;;;;;18.40;10.90;;;;;;;7.32;78.68;99129.16;4972573;28;20270;-68
2023/01/03 00:38:03;;;;;;;19.13;11.40;;;;;;;7.31;78.02;99133.75;4968497;28;20076;-69
2023/01/03 00:40:28;;;;;;;18.70;12.13;;;;;;;7.31;78.39;99128.31;4968289;28;20054;-69
2023/01/03 00:45:38;;;;;;;21.90;12.20;;;;;;;7.28;77.82;99135.13;4986015;28;20172;-68
2023/01/03 00:48:03;;;;;;;20.00;11.68;;;;;;;7.29;78.06;99144.94;4969111;28;20527;-68
2023/01/03 00:50:28;;;;;;;18.08;11.13;;;;;;;7.32;78.36;99145.50;4968841;28;20023;-68
2023/01/03 00:52:54;;;;;;;20.27;11.52;;;;;;;7.30;78.30;99141.13;4969129;28;20022;-68
2023/01/03 00:55:20;;;;;;;20.48;11.52;;;;;;;7.30;78.16;99134.84;4968704;28;20061;-67
2023/01/03 00:57:45;;;;;;;20.10;10.73;;;;;;;7.29;77.70;99142.22;4966896;28;20034;-67
2023/01/03 01:00:11;;;;;;;20.45;11.02;;;;;;;7.32;77.95;99148.25;4966532;28;20041;-66
2023/01/03 01:02:36;;;;;;;15.90;10.77;;;;;;;7.33;77.98;99137.06;4967356;28;20023;-67
2023/01/03 01:05:02;;;;;;;16.77;9.77;;;;;;;7.35;77.92;99145.81;4967144;28;20063;-67
2023/01/03 01:07:27;;;;;;;17.98;10.30;;;;;;;7.34;77.81;99138.69;4965897;28;20031;-67
2023/01/03 01:09:53;;;;;;;19.88;10.13;;;;;;;7.37;78.14;99146.38;4968077;28;20031;-67
2023/01/03 01:12:18;;;;;;;19.50;10.45;;;;;;;7.36;77.95;99150.19;4968679;28;20068;-67
2023/01/03 01:14:44;;;;;;;19.13;10.70;;;;;;;7.34;77.63;99133.25;4968875;28;20031;-67
2023/01/03 01:17:09;;;;;;;16.83;10.38;;;;;;;7.36;77.99;99142.00;4968250;28;20110;-68
2023/01/03 01:19:41;;;;;;;16.65;9.93;;;;;;;7.37;78.14;99148.25;4968602;28;20152;-68
2023/01/03 01:22:07;;;;;;;18.63;10.40;;;;;;;7.35;77.22;99154.00;4967586;28;20031;-67
2023/01/03 01:24:33;;;;;;;17.85;11.15;;;;;;;7.34;77.34;99149.63;4968629;28;20023;-67
2023/01/03 01:26:58;;;;;;;17.83;9.98;;;;;;;7.37;77.98;99151.84;4976046;28;20431;-67
2023/01/03 01:29:24;;;;;;;17.73;10.15;;;;;;;7.36;77.38;99160.25;4968086;28;20510;-67
2023/01/03 01:31:50;;;;;;;18.45;10.20;;;;;;;7.37;77.43;99161.91;4968276;28;20027;-67
2023/01/03 01:34:15;;;;;;;18.85;10.18;;;;;;;7.36;77.70;99154.81;4968544;28;20027;-67
2023/01/03 01:36:42;;;;;;;18.20;10.40;;;;;;;7.37;77.61;99165.47;4968081;28;20091;-67
2023/01/03 01:39:14;;;;;;;15.75;9.90;;;;;;;7.38;78.00;99169.00;4968399;28;20475;-67
2023/01/03 01:44:39;;;;;;;19.17;11.02;;;;;;;7.42;77.87;99168.25;4969858;28;20731;-67
2023/01/03 01:47:40;;;;;;;15.88;9.85;;;;;;;7.43;77.80;99169.91;4965179;28;20038;-67
2023/01/03 01:50:23;;;;;;;15.57;9.57;;;;;;;7.48;77.39;99173.78;4968257;28;20128;-67
2023/01/03 01:53:01;;;;;;;16.45;9.23;;;;;;;7.51;77.72;99174.06;4973128;28;20084;-67
2023/01/03 01:55:33;;;;;;;18.60;9.57;;;;;;;7.53;77.14;99177.38;4967246;28;20567;-67
2023/01/03 01:58:00;;;;;;;18.83;10.02;;;;;;;7.56;77.24;99170.56;4995712;28;20033;-68
2023/01/03 02:00:26;;;;;;;15.07;9.25;;;;;;;7.57;77.39;99183.13;4968346;28;20031;-67
2023/01/03 02:02:54;;;;;;;16.75;9.02;;;;;;;7.60;77.12;99180.72;4967824;28;20019;-68
2023/01/03 02:05:21;;;;;;;17.98;9.32;;;;;;;7.63;77.64;99190.28;4970400;28;20034;-67
2023/01/03 02:07:49;;;;;;;16.48;9.48;;;;;;;7.65;77.29;99193.56;4967481;28;20023;-67
2023/01/03 02:10:15;;;;;;;17.27;9.68;;;;;;;7.67;77.17;99182.41;4976205;28;20035;-68
2023/01/03 02:13:05;;;;;;;16.75;10.15;;;;;;;7.69;77.28;99197.44;4967925;28;20031;-68
2023/01/03 02:15:53;;;;;;;;;;;;;;;7.73;76.93;99206.75;4981704;28;20034;-68
2023/01/03 02:18:49;;;;;;;16.52;9.52;;;;;;;7.74;77.08;99197.50;4982579;28;20285;-67
2023/01/03 02:21:48;;;;;;;18.30;9.65;;;;;;;7.79;76.80;99215.00;4967099;28;20039;-68
2023/01/03 02:24:45;;;;;;;15.80;9.40;;;;;;;7.80;77.24;99212.00;4967410;28;20039;-67
2023/01/03 02:27:43;;;;;;;18.48;9.93;;;;;;;7.81;76.72;99216.38;4978231;28;20377;-67
2023/01/03 02:30:32;;;;;;;15.77;8.65;;;;;;;7.85;76.69;99227.63;4967682;28;20096;-67
2023/01/03 02:33:06;;;;;;;16.35;9.45;;;;;;;7.87;76.78;99229.00;4967357;28;20101;-67
2023/01/03 02:35:57;;;;;;;13.57;8.02;;;;;;;7.88;76.77;99236.13;4967191;28;20546;-67
2023/01/03 02:38:33;;;;;;;14.98;9.00;;;;;;;7.90;76.79;99244.88;4967055;28;20046;-67
2023/01/03 02:41:12;;;;;;;16.08;9.10;;;;;;;7.94;76.88;99258.84;4967006;28;20548;-67
2023/01/03 02:43:46;;;;;;;17.05;9.05;;;;;;;7.97;76.30;99261.03;4967565;28;20084;-68
2023/01/03 02:46:33;;;;;;;15.48;8.65;;;;;;;7.99;76.32;99266.25;4967213;28;20435;-67
2023/01/03 02:49:11;;;;;;;17.38;8.93;;;;;;;8.01;76.22;99262.19;4967242;28;20437;-67
2023/01/03 02:51:43;;;;;;;15.18;9.02;;;;;;;8.02;76.63;99263.81;4966563;28;20100;-67
2023/01/03 02:54:16;;;;;;;17.67;9.48;;;;;;;8.05;76.25;99263.31;4967280;28;20087;-67
2023/01/03 02:56:54;;;;;;;16.27;8.60;;;;;;;8.06;76.58;99258.69;4967465;28;20041;-67
2023/01/03 02:59:29;;;;;;;17.75;9.32;;;;;;;8.10;75.84;99264.44;4967376;28;20126;-67
2023/01/03 03:01:55;;;;;;;16.70;9.25;;;;;;;8.10;76.10;99265.28;4967152;28;20025;-67
2023/01/03 03:04:22;;;;;;;14.02;8.50;;;;;;;8.12;76.39;99267.75;4966640;28;20023;-67
2023/01/03 03:07:07;;;;;;;18.38;9.40;;;;;;;8.13;76.05;99270.22;4966339;28;20026;-68
2023/01/03 03:13:11;;;;;;;19.30;10.02;;;;;;;8.16;76.45;99269.69;4966896;28;20038;-67
2023/01/03 03:15:04;;;;;;;16.05;9.07;;;;;;;8.16;76.21;99266.13;4965373;28;20612;-67
2023/01/03 03:17:30;;;;;;;16.83;9.25;;;;;;;8.16;75.93;99277.88;4966619;28;20122;-67
2023/01/03 03:25:50;;;;;;;16.08;9.05;;;;;;;8.16;75.62;99302.47;4967082;28;20046;-68
2023/01/03 03:28:35;;;;;;;15.27;8.43;;;;;;;8.15;75.87;99298.09;4967348;28;20035;-68
2023/01/03 03:31:26;;;;;;;18.35;9.43;;;;;;;8.13;75.65;99296.72;4966548;28;20121;-67
2023/01/03 03:34:10;;;;;;;16.58;9.50;;;;;;;8.13;75.28;99299.44;4968881;28;20038;-68
2023/01/03 03:36:53;;;;;;;16.75;9.25;;;;;;;8.12;75.31;99300.53;4967592;28;20129;-68
2023/01/03 03:45:17;;;;;;;15.32;8.43;;;;;;;8.12;75.37;99319.66;4969622;28;20053;-67
2023/01/03 03:47:53;;;;;;;14.82;9.45;;;;;;;8.09;75.64;99331.09;4968782;28;20034;-68
2023/01/03 03:50:35;;;;;;;16.25;8.85;;;;;;;8.08;75.32;99329.44;4969882;28;20487;-67
2023/01/03 03:53:06;;;;;;;15.82;9.20;;;;;;;8.09;75.13;99334.66;4970690;28;20112;-68
2023/01/03 03:55:48;;;;;;;15.27;9.05;;;;;;;8.11;75.27;99334.41;4971141;28;20816;-68
2023/01/03 03:58:19;;;;;;;17.30;9.90;;;;;;;8.10;75.67;99330.00;4969507;28;20039;-68
2023/01/03 04:00:47;;;;;;;17.17;9.55;;;;;;;8.09;75.05;99334.66;4970566;28;20031;-68
2023/01/03 04:03:14;;;;;;;14.45;9.25;;;;;;;8.10;75.13;99324.53;4968492;28;20039;-68
2023/01/03 04:05:47;;;;;;;17.80;9.00;;;;;;;8.10;75.45;99335.47;4971198;28;20035;-67
2023/01/03 04:08:13;;;;;;;15.85;8.52;;;;;;;8.09;75.54;99340.13;5002926;28;20587;-68
2023/01/03 04:10:38;;;;;;;13.77;8.48;;;;;;;8.10;75.61;99340.94;5058423;28;20104;-68
2023/01/03 04:13:04;;;;;;;16.83;8.88;;;;;;;8.09;74.88;99353.78;5000015;28;20452;-67
2023/01/03 04:15:29;;;;;;;16.73;8.98;;;;;;;8.08;74.76;99343.94;4988752;28;20027;-68
2023/01/03 04:17:55;;;;;;;13.60;8.48;;;;;;;8.09;75.36;99347.50;4972308;28;20022;-68
2023/01/03 04:20:20;;;;;;;14.77;8.40;;;;;;;8.09;75.41;99362.00;4970563;28;20383;-68
2023/01/03 04:22:45;;;;;;;15.85;9.05;;;;;;;8.09;74.93;99355.69;4993641;28;20033;-68
2023/01/03 04:25:11;;;;;;;14.75;8.90;;;;;;;8.09;74.86;99352.94;5037363;28;20031;-68
2023/01/03 04:27:36;;;;;;;15.00;8.30;;;;;;;8.07;75.08;99360.59;5042957;28;20032;-67
2023/01/03 04:30:03;;;;;;;14.65;9.00;;;;;;;8.07;74.69;99363.31;5026669;28;20174;-68
2023/01/03 04:32:29;;;;;;;18.85;9.73;;;;;;;8.03;74.67;99361.09;4971711;28;20043;-68
2023/01/03 04:34:54;;;;;;;17.35;9.85;;;;;;;8.02;74.81;99343.03;4972944;28;20088;-68
2023/01/03 04:37:20;;;;;;;22.27;12.82;;;;;;;8.01;74.86;99348.78;5072276;28;20599;-66
2023/01/03 04:39:45;;;;;;;17.92;11.13;;;;;;;7.97;75.14;99343.00;4981748;28;20031;-66
2023/01/03 04:44:54;;;;;;;19.42;12.18;;;;;;;7.92;74.67;99363.97;5072261;28;20042;-66
2023/01/03 04:47:20;;;;;;;16.90;9.98;;;;;;;7.91;75.23;99363.16;4985149;28;20110;-66
2023/01/03 04:49:46;;;;;;;18.85;11.32;;;;;;;7.88;75.20;99360.94;4969585;28;20031;-66
2023/01/03 04:52:12;;;;;;;20.38;11.18;;;;;;;7.85;74.76;99361.47;4968563;28;20062;-66
2023/01/03 04:54:38;;;;;;;17.08;10.10;;;;;;;7.82;74.62;99375.63;4969310;28;20050;-66
2023/01/03 04:57:04;;;;;;;20.05;10.60;;;;;;;7.80;75.03;99366.84;4970240;28;20088;-67
2023/01/03 04:59:29;;;;;;;17.70;10.55;;;;;;;7.79;74.81;99370.66;4969108;28;20046;-66
2023/01/03 05:01:54;;;;;;;19.75;11.57;;;;;;;7.77;75.13;99375.56;4966354;28;20499;-67
2023/01/03 05:04:20;;;;;;;18.92;11.00;;;;;;;7.75;75.26;99368.44;4970327;28;20058;-66
2023/01/03 05:06:45;;;;;;;21.63;11.40;;;;;;;7.75;75.36;99373.91;4967279;28;20047;-67
2023/01/03 05:09:11;;;;;;;19.70;11.60;;;;;;;7.75;75.23;99376.63;4970255;28;20061;-67
2023/01/03 05:11:37;;;;;;;20.50;11.77;;;;;;;7.77;74.81;99375.56;4968914;28;20041;-67
2023/01/03 05:14:02;;;;;;;22.23;12.23;;;;;;;7.78;75.38;99382.66;4968921;28;20088;-67
2023/01/03 05:16:28;;;;;;;28.27;16.13;;;;;;;7.79;75.22;99378.84;4969729;28;20472;-67
2023/01/03 05:18:55;;;;;;;35.53;19.65;;;;;;;7.78;75.08;99382.66;4970343;28;20364;-67
2023/01/03 05:26:53;;;;;;;24.15;13.27;;;;;;;7.78;75.08;99382.66;4969811;28;20046;-68
2023/01/03 05:29:20;;;;;;;23.83;13.07;;;;;;;7.73;74.92;99378.78;5026551;28;20038;-68
2023/01/03 05:31:46;;;;;;;23.23;13.05;;;;;;;7.72;75.16;99382.59;4994754;28;20037;-68
2023/01/03 05:34:12;;;;;;;23.75;13.05;;;;;;;7.69;75.23;99391.31;4968934;28;20027;-68
2023/01/03 05:36:37;;;;;;;24.88;13.20;;;;;;;7.65;75.38;99392.06;4968997;28;20026;-68
2023/01/03 05:39:03;;;;;;;26.90;14.02;;;;;;;7.66;75.52;99399.19;4969000;28;20592;-68
2023/01/03 05:44:13;;;;;;;23.20;12.82;;;;;;;7.65;75.07;99411.19;4967455;28;20089;-68
2023/01/03 05:46:38;;;;;;;23.63;13.43;;;;;;;7.67;75.24;99423.50;4977298;28;20030;-68
2023/01/03 05:49:04;;;;;;;24.63;13.65;;;;;;;7.69;75.30;99424.06;4968107;28;20483;-68
2023/01/03 05:51:30;;;;;;;26.20;13.68;;;;;;;7.71;75.38;99438.28;4969494;28;20031;-69
2023/01/03 05:53:56;;;;;;;25.48;14.25;;;;;;;7.74;75.50;99436.97;4988254;28;20086;-68
2023/01/03 05:56:22;;;;;;;25.20;13.98;;;;;;;7.76;75.49;99429.34;4991299;28;20463;-68
2023/01/03 05:58:48;;;;;;;30.50;15.73;;;;;;;7.77;75.58;99443.81;4970043;28;20387;-69
2023/01/03 06:01:15;;;;;;;35.60;19.67;;;;;;;7.77;75.89;99443.81;4969869;28;20475;-68
2023/01/03 06:03:44;;;;;;;27.33;14.15;;;;;;;7.75;75.14;99438.59;4972703;28;20428;-68
2023/01/03 06:06:11;;;;;;;25.42;13.55;;;;;;;7.74;75.23;99442.44;4969033;28;20031;-68
2023/01/03 06:08:37;;;;;;;26.58;14.02;;;;;;;7.72;75.47;99437.22;4969236;28;20031;-68
2023/01/03 06:11:11;;;;;;;28.90;14.38;;;;;;;7.73;75.20;99441.59;4968369;28;20459;-68
2023/01/03 06:13:36;;;;;;;25.17;14.35;;;;;;;7.75;75.34;99444.91;4969162;28;20483;-68
2023/01/03 06:19:12;;;;;;;26.73;14.30;;;;;;;7.77;75.24;99452.84;5008364;28;20041;-68
2023/01/03 06:21:37;;;;;;;28.35;15.38;;;;;;;7.77;75.35;99449.28;4976921;28;20100;-68
2023/01/03 06:24:03;;;;;;;27.63;15.35;;;;;;;7.75;75.40;99455.81;5043898;28;20037;-68
2023/01/03 06:26:29;;;;;;;26.55;14.90;;;;;;;7.77;75.31;99460.22;4977631;28;20042;-68
2023/01/03 06:28:54;;;;;;;33.17;17.33;;;;;;;7.77;75.69;99469.22;4968906;28;20030;-67
2023/01/03 06:31:20;;;;;;;31.35;16.92;;;;;;;7.78;75.25;99470.06;4968694;28;20034;-68
2023/01/03 06:33:46;;;;;;;32.60;18.13;;;;;;;7.76;75.26;99470.28;5054419;28;20024;-67
2023/01/03 06:36:13;;;;;;;29.23;15.98;;;;;;;7.78;75.73;99481.78;4994718;28;20082;-68
2023/01/03 06:38:39;;;;;;;30.23;16.42;;;;;;;7.81;75.31;99483.22;5070095;28;20074;-68
2023/01/03 06:41:05;;;;;;;33.28;17.00;;;;;;;7.81;75.63;99492.22;4979394;28;20472;-68
2023/01/03 06:43:31;;;;;;;32.90;17.63;;;;;;;7.83;75.73;99491.97;4970478;28;20043;-67
2023/01/03 06:54:24;;;;;;;64.50;38.42;;;;;;;7.83;75.36;99500.97;4967949;28;20042;-68
2023/01/03 06:56:51;;;;;;;58.50;35.25;;;;;;;7.83;75.76;99511.09;4968049;28;20037;-68
2023/01/03 06:59:17;;;;;;;46.65;30.38;;;;;;;7.80;75.03;99509.69;4971743;28;20352;-68
2023/01/03 07:01:44;;;;;;;36.28;21.23;;;;;;;7.78;75.16;99516.47;5031627;28;20035;-67
2023/01/03 07:04:09;;;;;;;43.92;25.35;;;;;;;7.74;75.20;99516.16;5069954;28;20381;-68
2023/01/03 07:06:35;;;;;;;32.58;19.20;;;;;;;7.68;74.91;99517.16;4992404;28;20034;-67
2023/01/03 07:09:00;;;;;;;33.67;18.70;;;;;;;7.64;74.93;99527.75;4968318;28;20031;-68
2023/01/03 07:11:25;;;;;;;34.03;19.08;;;;;;;7.61;75.38;99530.97;4967376;28;20049;-69
2023/01/03 07:13:57;;;;;;;29.33;17.13;;;;;;;7.56;75.36;99534.47;4988144;28;20031;-68
2023/01/03 07:16:29;;;;;;;33.08;19.00;;;;;;;7.55;75.05;99540.16;4994922;28;20077;-67
2023/01/03 07:18:55;;;;;;;31.98;18.95;;;;;;;7.53;75.24;99540.44;4966652;28;20027;-69
2023/01/03 07:21:26;;;;;;;35.28;19.88;;;;;;;7.48;74.85;99537.63;4966878;28;20387;-70
2023/01/03 07:23:57;;;;;;;49.28;26.85;;;;;;;7.45;74.94;99540.84;4965794;28;20364;-70
2023/01/03 07:26:23;;;;;;;65.55;32.22;;;;;;;7.41;75.27;99543.25;4965685;28;20037;-69
2023/01/03 07:28:50;;;;;;;51.83;25.77;;;;;;;7.38;75.10;99549.22;4967429;28;20027;-69
2023/01/03 07:31:15;;;;;;;46.72;24.05;;;;;;;7.35;75.10;99548.84;4965838;28;20145;-69
2023/01/03 07:33:41;;;;;;;37.17;19.35;;;;;;;7.33;75.46;99551.84;5012763;28;20533;-69
2023/01/03 07:36:09;;;;;;;34.45;19.30;;;;;;;7.31;75.16;99554.00;4984403;28;20033;-69
2023/01/03 07:38:35;;;;;;;35.80;21.30;;;;;;;7.29;74.83;99550.69;4969796;28;20530;-70
2023/01/03 07:41:03;;;;;;;34.13;19.52;;;;;;;7.29;74.78;99556.16;5005686;28;20036;-69
2023/01/03 07:43:37;;;;;;;33.05;17.98;;;;;;;7.29;75.07;99561.59;5054621;28;20040;-70
2023/01/03 07:46:22;;;;;;;31.40;17.40;;;;;;;7.28;75.33;99562.69;4992826;28;20030;-70
2023/01/03 07:48:49;;;;;;;33.90;17.20;;;;;;;7.30;75.27;99563.25;4979307;28;20023;-69
2023/01/03 07:51:16;;;;;;;35.35;18.50;;;;;;;7.30;75.56;99565.97;4965629;28;20122;-70
2023/01/03 07:53:43;;;;;;;38.60;23.83;;;;;;;7.33;75.43;99572.88;4966593;28;20034;-69
2023/01/03 07:56:13;;;;;;;34.10;19.88;;;;;;;7.35;75.27;99585.19;5029318;28;20049;-69
2023/01/03 07:58:43;;;;;;;29.77;17.35;;;;;;;7.37;75.41;99579.47;5034598;28;20051;-69
2023/01/03 08:01:14;;;;;;;26.88;14.63;;;;;;;7.39;75.43;99582.78;5049449;28;20031;-69
2023/01/03 08:03:41;;;;;;;29.92;16.15;;;;;;;7.42;75.53;99576.81;4965330;28;20119;-69
2023/01/03 08:06:09;;;;;;;29.67;17.02;;;;;;;7.46;75.22;99586.16;4990304;28;20020;-68
2023/01/03 08:08:35;;;;;;;25.23;13.88;;;;;;;7.51;75.48;99575.34;5063426;28;20023;-70
2023/01/03 08:13:45;;;;;;;33.65;17.10;;;;;;;7.59;75.14;99583.13;4974565;28;20083;-69
2023/01/03 08:16:12;;;;;;;34.65;17.25;;;;;;;7.63;75.65;99588.91;4965661;28;20043;-70
2023/01/03 08:18:39;;;;;;;31.42;17.35;;;;;;;7.71;75.44;99590.41;4970532;28;20039;-70
2023/01/03 08:21:06;;;;;;;38.72;18.77;;;;;;;7.77;75.79;99597.56;4989577;28;20063;-69
2023/01/03 08:23:32;;;;;;;48.08;21.95;;;;;;;7.84;75.69;99602.88;5014646;28;20080;-70
2023/01/03 08:26:00;;;;;;;48.47;21.33;;;;;;;7.90;75.83;99596.41;5066790;28;20492;-69
2023/01/03 08:28:25;;;;;;;34.17;17.48;;;;;;;7.95;75.83;99601.94;5062898;28;20028;-68
2023/01/03 08:30:51;;;;;;;34.67;16.60;;;;;;;7.97;75.32;99605.25;4987956;28;20042;-68
2023/01/03 08:33:18;;;;;;;28.63;15.93;;;;;;;8.03;75.27;99606.97;4988869;28;20024;-68
2023/01/03 08:36:05;;;;;;;28.98;15.57;;;;;;;8.05;75.66;99604.00;4969169;28;20035;-66
2023/01/03 08:38:57;;;;;;;37.42;18.27;;;;;;;8.10;75.52;99601.34;4979031;28;20386;-67
2023/01/03 08:41:25;;;;;;;32.08;17.30;;;;;;;8.16;75.73;99603.06;4996088;28;20548;-68
2023/01/03 08:43:53;;;;;;;29.05;14.82;;;;;;;8.23;75.33;99604.78;4988913;28;20161;-65
2023/01/03 08:46:19;;;;;;;26.60;15.27;;;;;;;8.26;75.63;99607.84;5049899;28;20369;-65
2023/01/03 08:48:46;;;;;;;24.85;13.45;;;;;;;8.31;75.53;99620.75;4981222;28;20035;-65
2023/01/03 08:51:11;;;;;;;20.55;12.90;;;;;;;8.36;75.39;99618.09;4974452;28;20031;-66
2023/01/03 08:53:36;;;;;;;22.15;13.02;;;;;;;8.39;75.67;99622.22;4988133;28;20038;-66
2023/01/03 08:56:02;;;;;;;22.27;13.13;;;;;;;8.43;75.63;99624.19;4975667;28;20047;-66
2023/01/03 08:58:27;;;;;;;39.70;18.10;;;;;;;8.49;75.30;99631.44;4967629;28;20395;-66
2023/01/03 09:00:53;;;;;;;38.28;17.25;;;;;;;8.54;75.10;99635.31;4965903;28;20058;-67
2023/01/03 09:03:18;;;;;;;32.22;15.48;;;;;;;8.57;74.65;99630.16;4968149;28;20034;-65
2023/01/03 09:05:44;;;;;;;28.23;14.35;;;;;;;8.60;74.86;99632.38;4967214;28;20019;-67
2023/01/03 09:08:10;;;;;;;27.20;14.95;;;;;;;8.64;75.40;99630.78;4990914;28;20040;-66
2023/01/03 09:10:35;;;;;;;27.20;14.10;;;;;;;8.67;74.75;99623.16;4965968;28;20109;-67
2023/01/03 09:13:03;;;;;;;22.38;13.93;;;;;;;8.71;75.06;99624.31;4980925;28;20121;-67
2023/01/03 09:15:28;;;;;;;21.67;13.13;;;;;;;8.75;75.11;99625.44;4972637;28;20034;-66
2023/01/03 09:17:54;;;;;;;18.15;11.27;;;;;;;8.78;74.54;99623.03;4967975;28;20395;-67
2023/01/03 09:20:20;;;;;;;19.27;11.63;;;;;;;8.85;74.80;99630.22;4968218;28;20029;-66
2023/01/03 09:22:46;;;;;;;20.08;11.20;;;;;;;8.86;74.36;99629.94;4970056;28;20425;-66
2023/01/03 09:25:12;;;;;;;21.65;11.07;;;;;;;8.90;74.50;99628.34;4971297;28;20041;-66
2023/01/03 09:27:38;;;;;;;23.20;12.13;;;;;;;8.94;74.67;99629.50;5056480;28;20461;-66
2023/01/03 09:30:04;;;;;;;16.95;11.00;;;;;;;8.99;74.92;99625.16;4972543;28;20038;-66
2023/01/03 09:32:30;;;;;;;19.13;11.32;;;;;;;9.05;74.95;99630.41;4987453;28;20043;-66
2023/01/03 09:34:55;;;;;;;29.13;15.98;;;;;;;9.09;74.52;99626.09;4966331;28;20041;-66
2023/01/03 09:37:20;;;;;;;20.55;12.93;;;;;;;9.14;74.52;99627.22;4969198;28;20561;-65
2023/01/03 09:39:46;;;;;;;18.20;10.10;;;;;;;9.15;73.70;99629.72;4970143;28;20030;-66
2023/01/03 09:45:14;;;;;;;15.05;9.07;;;;;;;9.25;73.50;99618.03;5031138;28;20101;-66
2023/01/03 09:47:42;;;;;;;17.33;9.93;;;;;;;9.30;74.37;99617.25;4996318;28;20042;-66
2023/01/03 09:50:19;;;;;;;17.60;8.90;;;;;;;9.32;73.65;99613.19;4971748;28;20026;-66
2023/01/03 10:04:46;;;;;;;15.48;9.32;;;;;;;9.37;73.78;99620.63;4965506;28;20191;-67
2023/01/03 10:07:49;;;;;;;16.15;10.00;;;;;;;9.36;73.47;99622.53;4968307;28;20038;-66
2023/01/03 10:10:29;;;;;;;17.50;9.85;;;;;;;9.37;72.55;99626.09;4973264;28;20510;-70
2023/01/03 10:13:17;;;;;;;16.73;9.95;;;;;;;9.39;73.18;99622.00;4969958;28;20038;-66
2023/01/03 10:16:00;;;;;;;20.45;10.95;;;;;;;9.41;72.67;99624.50;4973447;28;20030;-66
2023/01/03 10:18:41;;;;;;;18.48;10.90;;;;;;;9.45;72.66;99614.66;4969612;28;20072;-65
2023/01/03 10:21:13;;;;;;;19.30;10.45;;;;;;;9.46;72.73;99619.06;4976194;28;20035;-67
2023/01/03 10:23:38;;;;;;;15.50;8.80;;;;;;;9.51;73.14;99616.38;5033922;28;20056;-67
2023/01/03 10:26:10;;;;;;;18.73;9.48;;;;;;;9.51;72.23;99610.91;5010931;28;20519;-68
2023/01/03 10:28:39;;;;;;;12.98;7.38;;;;;;;9.51;72.13;99616.38;4994247;28;20470;-67
2023/01/03 10:31:14;;;;;;;12.45;7.18;;;;;;;9.53;72.21;99610.63;4964141;28;20041;-67
2023/01/03 10:33:45;;;;;;;15.68;7.07;;;;;;;9.57;72.43;99610.94;4965730;28;20901;-67
2023/01/03 10:36:12;;;;;;;11.82;6.68;;;;;;;9.62;72.50;99613.69;4962545;28;20034;-67
2023/01/03 10:38:38;;;;;;;9.85;6.07;;;;;;;9.70;72.09;99613.22;4992086;28;20119;-67
2023/01/03 10:41:31;;;;;;;16.42;8.23;;;;;;;9.74;71.71;99619.00;5000468;28;20024;-68
2023/01/03 10:43:59;;;;;;;11.63;6.85;;;;;;;9.77;71.90;99616.56;5025713;28;20069;-67
2023/01/03 10:46:26;;;;;;;11.30;5.55;;;;;;;9.82;71.17;99618.50;5050740;28;20092;-67
2023/01/03 10:48:53;;;;;;;13.50;7.53;;;;;;;9.79;71.37;99600.69;5025731;28;20518;-67
2023/01/03 10:51:25;;;;;;;13.18;6.78;;;;;;;9.80;70.92;99606.97;4976352;28;20471;-67
2023/01/03 10:53:54;;;;;;;9.05;5.68;;;;;;;9.83;70.80;99607.31;5033070;28;20028;-68
2023/01/03 10:56:20;;;;;;;11.20;5.82;;;;;;;9.89;71.20;99608.16;4971572;28;20048;-67
2023/01/03 10:58:49;;;;;;;12.48;6.90;;;;;;;9.93;70.88;99601.06;5033354;28;20026;-68
2023/01/03 11:01:21;;;;;;;10.05;5.95;;;;;;;9.96;69.81;99613.41;4996281;28;20036;-67
2023/01/03 11:04:05;;;;;;;11.95;7.38;;;;;;;9.95;70.25;99601.63;4966728;28;20038;-68
2023/01/03 11:06:31;;;;;;;16.65;9.32;;;;;;;9.98;69.93;99603.03;5002658;28;20027;-67
2023/01/03 11:09:04;;;;;;;11.98;6.32;;;;;;;9.97;69.76;99596.69;5010410;28;20032;-68
2023/01/03 11:11:40;;;;;;;11.85;7.50;;;;;;;9.98;70.20;99598.34;5040564;28;20032;-68
2023/01/03 11:14:08;;;;;;;9.35;6.00;;;;;;;9.99;69.81;99590.94;5054394;28;20485;-68
2023/01/03 11:16:34;;;;;;;16.73;8.32;;;;;;;9.98;69.04;99595.63;4981930;28;20030;-68
2023/01/03 11:19:02;;;;;;;19.48;12.18;;;;;;;9.97;69.07;99593.97;4972257;28;20027;-67
2023/01/03 11:22:18;;;;;;;13.27;8.90;;;;;;;10.00;69.47;99597.25;5045020;28;20025;-67
2023/01/03 11:24:59;;;;;;;17.17;9.50;;;;;;;9.96;69.38;99586.81;4904705;29;20032;-67
2023/01/03 11:27:43;;;;;;;12.30;7.57;;;;;;;9.97;69.13;99585.75;4957924;28;20395;-68
2023/01/03 11:30:41;;;;;;;15.55;8.00;;;;;;;9.96;68.95;99586.03;4968439;28;20041;-68
2023/01/03 11:33:25;;;;;;;14.75;8.52;;;;;;;9.96;69.21;99586.81;4968495;28;20121;-69
2023/01/03 11:36:21;;;;;;;13.60;7.30;;;;;;;9.92;68.46;99585.69;4965450;28;20030;-69
2023/01/03 11:38:52;;;;;;;11.60;7.15;;;;;;;9.94;69.06;99577.22;4965825;28;20027;-71
2023/01/03 11:41:47;;;;;;;9.32;6.63;;;;;;;9.93;68.19;99576.38;4967679;28;20388;-72
2023/01/03 11:44:47;;;;;;;11.88;7.20;;;;;;;9.92;68.89;99572.00;4968056;28;20023;-72
2023/01/03 11:47:18;;;;;;;9.63;6.32;;;;;;;9.94;68.74;99586.25;4967339;28;20391;-70
2023/01/03 11:50:13;;;;;;;11.23;6.07;;;;;;;9.97;68.49;99583.00;4967476;28;20030;-70
2023/01/03 11:52:49;;;;;;;10.25;6.40;;;;;;;10.02;68.17;99584.94;4970669;28;20035;-70
2023/01/03 11:55:37;;;;;;;12.63;6.95;;;;;;;10.06;68.03;99586.06;4970746;28;20181;-71
2023/01/03 11:58:23;;;;;;;11.52;6.70;;;;;;;10.07;68.21;99578.69;4970765;28;20042;-71
2023/01/03 12:01:10;;;;;;;11.23;6.90;;;;;;;10.09;68.67;99571.81;4997351;28;20496;-70
2023/01/03 12:03:54;;;;;;;10.15;6.60;;;;;;;10.20;68.26;99575.44;5073034;28;20095;-70
2023/01/03 12:06:30;;;;;;;10.38;5.60;;;;;;;10.27;67.93;99575.22;4991828;28;20030;-72
2023/01/03 12:09:04;;;;;;;9.95;5.63;;;;;;;10.28;68.17;99580.41;4966221;28;20426;-72
2023/01/03 12:11:38;;;;;;;13.18;8.05;;;;;;;10.27;68.16;99572.47;4971118;28;20088;-71
2023/01/03 12:14:36;;;;;;;13.15;7.80;;;;;;;10.25;68.10;99575.47;4971274;28;20038;-71
2023/01/03 12:17:11;;;;;;;11.07;5.90;;;;;;;10.24;67.67;99570.25;4970933;28;20037;-71
2023/01/03 12:19:51;;;;;;;9.82;6.25;;;;;;;10.22;68.14;99578.75;4970903;28;20042;-72
2023/01/03 12:22:36;;;;;;;11.05;5.22;;;;;;;10.21;67.36;99579.03;4971643;28;20027;-72
2023/01/03 12:25:08;;;;;;;8.07;5.00;;;;;;;10.20;67.28;99575.44;4971177;28;20027;-72
2023/01/03 12:27:42;;;;;;;5.03;3.40;;;;;;;10.16;65.52;99570.75;4971053;28;20026;-72
2023/01/03 12:30:32;;;;;;;4.30;2.90;;;;;;;10.10;65.96;99569.94;4971303;28;20038;-72
2023/01/03 12:33:31;;;;;;;23.92;9.07;;;;;;;10.06;65.44;99577.03;4972591;28;20042;-73
2023/01/03 12:36:22;;;;;;;14.68;5.80;;;;;;;10.04;64.14;99580.00;4970339;28;20030;-73
2023/01/03 12:38:58;;;;;;;7.28;4.18;;;;;;;10.01;65.91;99575.06;4970402;28;20054;-71
2023/01/03 12:41:47;;;;;;;14.98;7.18;;;;;;;10.06;65.85;99575.09;4969162;28;20616;-72
2023/01/03 12:44:21;;;;;;;15.57;7.50;;;;;;;10.11;65.70;99579.78;4969571;28;20042;-70
2023/01/03 12:46:51;;;;;;;13.80;7.53;;;;;;;10.13;65.80;99583.91;4968968;28;20314;-71
2023/01/03 12:49:22;;;;;;;25.13;12.93;;;;;;;10.15;65.42;99575.44;4970859;28;20041;-70